createdAt,value
2023-02-27T00:01:12.364Z,4.90
2023-02-27T00:03:41.154Z,5.13
2023-02-27T00:06:07.917Z,4.18
2023-02-27T00:08:36.911Z,4.68
2023-02-27T00:11:03.805Z,4.63
2023-02-27T00:13:30.615Z,6.28
2023-02-27T00:16:02.126Z,5.25
2023-02-27T00:18:30.871Z,4.90
2023-02-27T00:20:57.926Z,4.10
2023-02-27T00:23:27.976Z,3.72
2023-02-27T00:25:57.981Z,4.35
2023-02-27T00:28:24.713Z,6.15
2023-02-27T00:30:51.790Z,4.30
2023-02-27T00:33:21.212Z,4.95
2023-02-27T00:38:33.381Z,4.25
2023-02-27T00:41:03.002Z,5.68
2023-02-27T00:43:32.290Z,4.90
2023-02-27T00:45:59.076Z,4.82
2023-02-27T00:48:30.491Z,5.03
2023-02-27T00:50:59.476Z,5.05
2023-02-27T00:53:26.530Z,5.60
2023-02-27T00:55:53.542Z,5.35
2023-02-27T00:58:20.570Z,7.88
2023-02-27T01:00:49.851Z,5.85
2023-02-27T01:03:16.681Z,4.97
2023-02-27T01:05:45.894Z,5.88
2023-02-27T01:08:15.166Z,6.55
2023-02-27T01:10:46.670Z,4.75
2023-02-27T01:13:15.882Z,5.82
2023-02-27T01:15:42.598Z,4.32
2023-02-27T01:18:09.245Z,6.30
2023-02-27T01:20:38.197Z,7.55
2023-02-27T01:23:05.141Z,6.38
2023-02-27T01:25:31.696Z,5.90
2023-02-27T01:28:01.580Z,6.05
2023-02-27T01:30:28.251Z,5.10
2023-02-27T01:32:55.045Z,4.25
2023-02-27T01:35:21.718Z,6.35
2023-02-27T01:37:50.685Z,5.90
2023-02-27T01:40:17.358Z,6.63
2023-02-27T01:42:44.261Z,5.55
2023-02-27T01:45:43.129Z,9.98
2023-02-27T01:48:21.250Z,6.13
2023-02-27T01:50:53.414Z,6.07
2023-02-27T01:53:26.068Z,5.63
2023-02-27T01:56:01.053Z,4.63
2023-02-27T01:58:32.743Z,4.70
2023-02-27T02:01:05.271Z,5.40
2023-02-27T02:03:46.369Z,5.60
2023-02-27T02:06:13.183Z,5.13
2023-02-27T02:08:46.785Z,5.00
2023-02-27T02:11:17.034Z,5.75
2023-02-27T02:13:46.665Z,4.68
2023-02-27T02:16:24.325Z,4.05
2023-02-27T02:19:12.342Z,7.32
2023-02-27T02:24:33.344Z,5.07
2023-02-27T02:27:52.611Z,4.75
2023-02-27T02:30:47.351Z,6.00
2023-02-27T02:33:32.235Z,5.45
2023-02-27T02:35:58.796Z,4.45
2023-02-27T02:38:49.847Z,8.40
2023-02-27T02:41:29.336Z,4.93
2023-02-27T02:44:12.219Z,4.18
2023-02-27T02:47:10.777Z,5.03
2023-02-27T02:49:52.448Z,4.53
2023-02-27T02:52:40.836Z,5.82
2023-02-27T02:55:16.956Z,5.47
2023-02-27T02:58:06.313Z,5.85
2023-02-27T03:00:41.355Z,4.32
2023-02-27T03:03:30.165Z,5.65
2023-02-27T03:06:09.224Z,5.75
2023-02-27T03:08:47.672Z,4.47
2023-02-27T03:11:15.503Z,3.60
2023-02-27T03:13:55.286Z,3.90
2023-02-27T03:16:28.635Z,3.92
2023-02-27T03:19:11.819Z,4.25
2023-02-27T03:21:49.748Z,5.75
2023-02-27T03:24:42.062Z,5.03
2023-02-27T03:27:10.268Z,6.32
2023-02-27T03:29:49.731Z,4.68
2023-02-27T03:32:44.190Z,5.47
2023-02-27T03:35:14.569Z,6.32
2023-02-27T03:38:12.740Z,5.53
2023-02-27T03:41:13.012Z,4.57
2023-02-27T03:46:22.705Z,2.45
2023-02-27T03:48:50.060Z,4.78
2023-02-27T03:51:22.483Z,5.25
2023-02-27T03:53:55.269Z,4.45
2023-02-27T03:56:28.563Z,4.50
2023-02-27T03:59:00.047Z,3.65
2023-02-27T04:01:29.983Z,4.10
2023-02-27T04:04:09.020Z,4.50
2023-02-27T04:06:56.927Z,3.92
2023-02-27T04:12:39.140Z,4.57
2023-02-27T04:15:24.994Z,4.07
2023-02-27T04:18:14.345Z,4.78
2023-02-27T04:20:48.580Z,4.85
2023-02-27T04:23:37.378Z,3.95
2023-02-27T04:26:09.114Z,4.60
2023-02-27T04:28:50.236Z,4.10
2023-02-27T04:31:47.597Z,3.80
2023-02-27T04:34:35.389Z,4.57
2023-02-27T04:37:21.600Z,5.65
2023-02-27T04:40:40.784Z,4.47
2023-02-27T04:43:10.759Z,4.38
2023-02-27T04:45:41.637Z,4.65
2023-02-27T04:48:23.232Z,4.75
2023-02-27T04:51:05.706Z,4.72
2023-02-27T04:53:49.052Z,4.75
2023-02-27T04:56:28.577Z,6.50
2023-02-27T04:59:04.033Z,4.38
2023-02-27T05:02:09.349Z,4.20
2023-02-27T05:04:41.636Z,4.53
2023-02-27T05:07:15.760Z,3.42
2023-02-27T05:10:03.410Z,5.10
2023-02-27T05:12:50.706Z,4.45
2023-02-27T05:15:37.107Z,2.42
2023-02-27T05:18:17.269Z,2.75
2023-02-27T05:20:46.015Z,3.58
2023-02-27T05:23:41.731Z,4.35
2023-02-27T05:26:26.072Z,3.92
2023-02-27T05:29:01.508Z,3.53
2023-02-27T05:31:44.246Z,4.18
2023-02-27T05:34:19.450Z,3.20
2023-02-27T05:36:57.401Z,5.13
2023-02-27T05:39:30.407Z,4.43
2023-02-27T05:42:06.449Z,3.95
2023-02-27T05:44:43.056Z,4.60
2023-02-27T05:47:17.468Z,3.63
2023-02-27T05:49:55.522Z,4.47
2023-02-27T05:52:27.089Z,3.88
2023-02-27T05:55:06.671Z,3.72
2023-02-27T05:57:44.236Z,4.82
2023-02-27T06:00:14.436Z,3.75
2023-02-27T06:02:43.968Z,6.38
2023-02-27T06:05:14.838Z,4.18
2023-02-27T06:07:41.424Z,3.05
2023-02-27T06:10:11.332Z,5.93
2023-02-27T06:12:40.288Z,3.25
2023-02-27T06:15:07.530Z,4.63
2023-02-27T06:17:36.895Z,4.55
2023-02-27T06:22:33.629Z,4.13
2023-02-27T06:25:00.473Z,4.10
2023-02-27T06:27:32.091Z,4.38
2023-02-27T06:29:58.735Z,3.70
2023-02-27T06:32:30.518Z,3.17
2023-02-27T06:34:57.475Z,3.47
2023-02-27T06:37:27.330Z,3.60
2023-02-27T06:39:56.198Z,2.63
2023-02-27T06:42:25.534Z,3.08
2023-02-27T06:44:57.803Z,3.72
2023-02-27T06:47:26.908Z,3.17
2023-02-27T06:49:58.908Z,3.65
2023-02-27T06:52:26.006Z,3.53
2023-02-27T06:54:53.200Z,4.80
2023-02-27T06:57:22.634Z,2.90
2023-02-27T07:02:17.808Z,3.92
2023-02-27T07:04:44.701Z,3.80
2023-02-27T07:07:35.228Z,3.67
2023-02-27T07:09:58.357Z,4.45
2023-02-27T07:12:25.175Z,4.40
2023-02-27T07:14:57.126Z,4.18
2023-02-27T07:17:23.827Z,4.90
2023-02-27T07:19:52.885Z,4.05
2023-02-27T07:22:21.693Z,5.40
2023-02-27T07:24:50.726Z,5.13
2023-02-27T07:27:17.432Z,4.90
2023-02-27T07:29:44.501Z,5.00
2023-02-27T07:32:11.448Z,3.42
2023-02-27T07:34:38.412Z,4.15
2023-02-27T07:37:08.344Z,4.82
2023-02-27T07:39:37.699Z,7.30
2023-02-27T07:42:09.180Z,3.45
2023-02-27T07:44:38.506Z,3.20
2023-02-27T07:47:11.297Z,4.20
2023-02-27T07:49:41.401Z,5.30
2023-02-27T07:52:08.438Z,3.15
2023-02-27T07:54:38.375Z,4.15
2023-02-27T07:57:05.765Z,4.50
2023-02-27T07:59:37.456Z,5.65
2023-02-27T08:02:06.543Z,6.30
2023-02-27T08:04:33.257Z,2.75
2023-02-27T08:07:05.223Z,4.72
2023-02-27T08:09:34.641Z,3.90
2023-02-27T08:12:03.174Z,4.20
2023-02-27T08:14:32.514Z,4.22
2023-02-27T08:19:28.552Z,2.88
2023-02-27T08:21:55.307Z,4.68
2023-02-27T08:24:24.112Z,5.45
2023-02-27T08:26:53.129Z,4.47
2023-02-27T08:32:05.221Z,5.38
2023-02-27T08:34:34.070Z,3.75
2023-02-27T08:37:00.714Z,4.35
2023-02-27T08:39:27.511Z,4.65
2023-02-27T08:41:56.490Z,3.63
2023-02-27T08:44:23.166Z,3.17
2023-02-27T08:46:52.162Z,4.57
2023-02-27T08:49:23.109Z,4.07
2023-02-27T08:51:49.825Z,6.32
2023-02-27T08:54:16.516Z,6.20
2023-02-27T08:56:45.513Z,4.85
2023-02-27T09:03:31.387Z,5.40
2023-02-27T09:06:00.600Z,4.97
2023-02-27T09:08:35.774Z,8.43
2023-02-27T09:14:08.789Z,5.88
2023-02-27T09:16:35.550Z,3.85
2023-02-27T09:19:04.601Z,3.85
2023-02-27T09:21:31.500Z,4.70
2023-02-27T09:24:17.276Z,5.75
2023-02-27T09:26:49.155Z,5.20
2023-02-27T09:29:16.293Z,6.68
2023-02-27T09:31:42.885Z,4.93
2023-02-27T09:34:09.674Z,6.20
2023-02-27T09:36:36.424Z,5.55
2023-02-27T09:39:05.589Z,5.47
2023-02-27T09:42:01.020Z,3.50
2023-02-27T09:44:48.756Z,4.00
2023-02-27T09:47:27.632Z,8.27
2023-02-27T09:50:33.801Z,4.32
2023-02-27T09:55:31.965Z,5.07
2023-02-27T09:58:16.144Z,5.05
2023-02-27T10:01:09.447Z,6.20
2023-02-27T10:03:54.603Z,6.05
2023-02-27T10:06:43.730Z,4.82
2023-02-27T10:09:39.717Z,4.57
2023-02-27T10:12:27.398Z,6.55
2023-02-27T10:14:57.510Z,6.65
2023-02-27T10:17:30.544Z,4.63
2023-02-27T10:20:02.795Z,5.03
2023-02-27T10:22:37.760Z,4.15
2023-02-27T10:25:29.656Z,6.38
2023-02-27T10:28:02.296Z,5.13
2023-02-27T10:30:32.872Z,5.38
2023-02-27T10:33:12.896Z,6.25
2023-02-27T10:35:45.432Z,6.10
2023-02-27T10:38:20.344Z,7.35
2023-02-27T10:40:48.308Z,3.97
2023-02-27T10:43:19.883Z,4.20
2023-02-27T10:45:51.788Z,6.43
2023-02-27T10:48:20.459Z,5.85
2023-02-27T10:50:52.807Z,5.55
2023-02-27T10:53:25.217Z,5.65
2023-02-27T10:56:02.034Z,6.10
2023-02-27T10:58:34.647Z,5.40
2023-02-27T11:01:16.025Z,5.88
2023-02-27T11:03:45.279Z,4.15
2023-02-27T11:06:23.821Z,5.00
2023-02-27T11:09:29.155Z,4.53
2023-02-27T11:12:13.218Z,4.65
2023-02-27T11:14:51.234Z,4.05
2023-02-27T11:17:24.848Z,4.63
2023-02-27T11:19:53.662Z,4.25
2023-02-27T11:22:29.696Z,6.88
2023-02-27T11:25:23.118Z,5.97
2023-02-27T11:27:52.184Z,7.05
2023-02-27T11:30:32.068Z,5.72
2023-02-27T11:33:04.593Z,3.88
2023-02-27T11:35:39.679Z,4.72
2023-02-27T11:38:30.295Z,6.97
2023-02-27T11:41:07.749Z,4.45
2023-02-27T11:43:47.309Z,6.03
2023-02-27T11:46:46.659Z,5.72
2023-02-27T11:49:32.017Z,4.88
2023-02-27T11:52:03.458Z,5.05
2023-02-27T11:55:01.614Z,7.30
2023-02-27T11:57:30.466Z,4.85
2023-02-27T12:00:16.290Z,5.47
2023-02-27T12:02:46.643Z,6.18
2023-02-27T12:05:17.032Z,5.07
2023-02-27T12:08:22.090Z,8.63
2023-02-27T12:11:12.387Z,5.18
2023-02-27T12:13:50.120Z,6.05
2023-02-27T12:16:19.959Z,5.60
2023-02-27T12:18:58.298Z,5.22
2023-02-27T12:21:28.719Z,7.70
2023-02-27T12:24:08.468Z,5.53
2023-02-27T12:26:40.741Z,5.03
2023-02-27T12:29:18.140Z,7.45
2023-02-27T12:31:53.626Z,6.00
2023-02-27T12:34:23.425Z,6.07
2023-02-27T12:36:55.249Z,6.00
2023-02-27T12:39:25.192Z,4.88
2023-02-27T12:42:21.688Z,5.68
2023-02-27T12:45:27.767Z,4.93
2023-02-27T12:48:15.923Z,5.13
2023-02-27T12:51:19.830Z,6.05
2023-02-27T12:53:58.846Z,6.72
2023-02-27T12:56:39.834Z,6.78
2023-02-27T12:59:14.855Z,4.70
2023-02-27T13:01:59.732Z,5.20
2023-02-27T13:04:45.572Z,6.43
2023-02-27T13:07:21.728Z,7.63
2023-02-27T13:09:59.699Z,5.28
2023-02-27T13:12:31.600Z,5.32
2023-02-27T13:15:13.084Z,5.22
2023-02-27T13:17:52.737Z,4.95
2023-02-27T13:20:24.674Z,4.57
2023-02-27T13:23:13.198Z,5.13
2023-02-27T13:25:44.903Z,6.00
2023-02-27T13:28:19.263Z,4.88
2023-02-27T13:30:57.852Z,5.10
2023-02-27T13:33:34.655Z,4.93
2023-02-27T13:36:29.796Z,7.40
2023-02-27T13:38:59.847Z,6.13
2023-02-27T13:41:29.755Z,6.30
2023-02-27T13:44:19.427Z,6.88
2023-02-27T13:46:48.597Z,6.93
2023-02-27T13:49:28.221Z,8.13
2023-02-27T13:51:56.766Z,5.63
2023-02-27T13:54:30.388Z,5.75
2023-02-27T13:56:59.674Z,7.40
2023-02-27T14:02:27.813Z,7.68
2023-02-27T14:05:00.670Z,4.90
2023-02-27T14:07:34.564Z,5.40
2023-02-27T14:10:11.630Z,6.70
2023-02-27T14:12:45.710Z,5.80
2023-02-27T14:15:16.436Z,4.82
2023-02-27T14:17:50.992Z,6.85
2023-02-27T14:20:27.414Z,6.07
2023-02-27T14:23:17.912Z,6.25
2023-02-27T14:25:51.108Z,6.82
2023-02-27T14:28:59.366Z,6.25
2023-02-27T14:31:31.014Z,6.63
2023-02-27T14:34:06.257Z,8.57
2023-02-27T14:36:40.395Z,6.88
2023-02-27T14:39:09.674Z,6.28
2023-02-27T14:44:28.231Z,6.35
2023-02-27T14:46:58.879Z,8.20
2023-02-27T14:49:36.683Z,6.55
2023-02-27T14:52:13.893Z,6.90
2023-02-27T14:54:40.618Z,10.05
2023-02-27T14:57:16.602Z,5.45
2023-02-27T14:59:49.533Z,6.18
2023-02-27T15:02:18.575Z,5.82
2023-02-27T15:04:46.142Z,7.32
2023-02-27T15:07:26.801Z,5.95
2023-02-27T15:09:57.343Z,6.40
2023-02-27T15:12:25.704Z,6.32
2023-02-27T15:15:00.888Z,6.60
2023-02-27T15:17:36.904Z,5.93
2023-02-27T15:20:30.307Z,7.22
2023-02-27T15:23:00.321Z,8.20
2023-02-27T15:25:32.944Z,8.70
2023-02-27T15:28:04.282Z,6.88
2023-02-27T15:30:34.182Z,6.22
2023-02-27T15:33:03.762Z,6.57
2023-02-27T15:35:38.166Z,6.18
2023-02-27T15:38:05.414Z,8.25
2023-02-27T15:40:37.420Z,7.40
2023-02-27T15:43:04.514Z,9.43
2023-02-27T15:45:38.360Z,7.50
2023-02-27T15:48:05.602Z,8.10
2023-02-27T15:50:40.286Z,5.88
2023-02-27T15:53:09.547Z,6.15
2023-02-27T15:58:19.177Z,6.47
2023-02-27T16:00:46.556Z,7.53
2023-02-27T16:03:21.675Z,6.70
2023-02-27T16:05:52.825Z,6.50
2023-02-27T16:08:21.109Z,5.97
2023-02-27T16:10:50.940Z,7.50
2023-02-27T16:13:54.288Z,9.43
2023-02-27T16:16:21.006Z,7.30
2023-02-27T16:18:51.978Z,11.23
2023-02-27T16:21:31.098Z,11.88
2023-02-27T16:24:18.828Z,12.32
2023-02-27T16:29:20.756Z,8.38
2023-02-27T16:31:53.886Z,7.30
2023-02-27T16:34:45.623Z,7.28
2023-02-27T16:37:27.525Z,7.53
2023-02-27T16:39:54.532Z,9.32
2023-02-27T16:42:22.582Z,8.00
2023-02-27T16:44:52.162Z,5.70
2023-02-27T16:47:18.958Z,6.32
2023-02-27T16:49:49.489Z,6.82
2023-02-27T16:52:16.184Z,6.13
2023-02-27T16:54:48.087Z,7.68
2023-02-27T16:57:17.924Z,7.40
2023-02-27T16:59:47.186Z,6.28
2023-02-27T17:02:19.384Z,6.50
2023-02-27T17:04:48.078Z,6.40
2023-02-27T17:07:17.097Z,9.70
2023-02-27T17:09:47.766Z,7.50
2023-02-27T17:12:16.825Z,7.30
2023-02-27T17:14:43.484Z,5.63
2023-02-27T17:17:13.038Z,7.13
2023-02-27T17:19:45.281Z,7.20
2023-02-27T17:22:15.212Z,6.47
2023-02-27T17:24:41.926Z,6.65
2023-02-27T17:27:11.231Z,6.65
2023-02-27T17:32:08.103Z,6.90
2023-02-27T17:34:34.798Z,6.22
2023-02-27T17:37:06.711Z,6.45
2023-02-27T17:39:34.008Z,7.10
2023-02-27T17:42:00.784Z,6.82
2023-02-27T17:44:29.828Z,7.07
2023-02-27T17:46:56.600Z,7.30
2023-02-27T17:49:23.276Z,6.00
2023-02-27T17:51:49.980Z,6.35
2023-02-27T17:54:17.019Z,9.52
2023-02-27T17:56:45.854Z,10.15
2023-02-27T17:59:15.106Z,8.52
2023-02-27T18:01:44.264Z,9.13
2023-02-27T18:04:17.505Z,9.25
2023-02-27T18:06:44.505Z,7.68
2023-02-27T18:09:11.829Z,7.28
2023-02-27T18:11:43.431Z,8.73
2023-02-27T18:14:10.204Z,13.43
2023-02-27T18:16:39.336Z,8.48
2023-02-27T18:19:08.967Z,10.05
2023-02-27T18:21:42.627Z,14.65
2023-02-27T18:24:11.957Z,9.05
2023-02-27T18:29:10.748Z,9.48
2023-02-27T18:31:40.280Z,9.68
2023-02-27T18:34:09.340Z,10.95
2023-02-27T18:36:37.192Z,9.73
2023-02-27T18:39:07.451Z,9.35
2023-02-27T18:41:37.194Z,11.25
2023-02-27T18:44:05.095Z,7.80
2023-02-27T18:46:32.921Z,11.68
2023-02-27T18:49:02.059Z,9.18
2023-02-27T18:51:31.722Z,10.70
2023-02-27T18:54:00.934Z,9.20
2023-02-27T18:56:30.694Z,9.82
2023-02-27T18:59:01.960Z,11.40
2023-02-27T19:01:33.258Z,11.50
2023-02-27T19:04:05.572Z,8.85
2023-02-27T19:06:39.066Z,6.63
2023-02-27T19:09:09.638Z,9.25
2023-02-27T19:11:39.319Z,6.43
2023-02-27T19:14:08.724Z,6.18
2023-02-27T19:16:36.071Z,7.72
2023-02-27T19:19:10.259Z,6.32
2023-02-27T19:21:37.350Z,8.13
2023-02-27T19:24:04.284Z,7.95
2023-02-27T19:26:36.542Z,6.78
2023-02-27T19:29:04.170Z,6.85
2023-02-27T19:31:32.995Z,8.02
2023-02-27T19:34:02.276Z,6.93
2023-02-27T19:36:34.701Z,8.18
2023-02-27T19:39:02.858Z,8.90
2023-02-27T19:41:30.405Z,7.15
2023-02-27T19:43:59.157Z,6.68
2023-02-27T19:46:33.002Z,8.10
2023-02-27T19:49:06.078Z,9.45
2023-02-27T19:51:33.473Z,9.30
2023-02-27T19:54:02.749Z,8.38
2023-02-27T19:56:30.294Z,7.80
2023-02-27T19:59:02.194Z,8.13
2023-02-27T20:01:36.309Z,6.78
2023-02-27T20:04:06.649Z,8.40
2023-02-27T20:06:42.305Z,6.05
2023-02-27T20:09:11.511Z,6.47
2023-02-27T20:11:38.364Z,9.30
2023-02-27T20:14:07.703Z,6.93
2023-02-27T20:19:10.517Z,7.18
2023-02-27T20:21:37.621Z,8.00
2023-02-27T20:24:04.649Z,9.27
2023-02-27T20:26:39.475Z,7.53
2023-02-27T20:29:10.991Z,8.43
2023-02-27T20:31:39.365Z,6.35
2023-02-27T20:34:11.278Z,7.45
2023-02-27T20:36:40.138Z,7.90
2023-02-27T20:39:11.007Z,8.13
2023-02-27T20:41:40.744Z,9.27
2023-02-27T20:44:08.646Z,6.55
2023-02-27T20:46:35.966Z,7.80
2023-02-27T20:49:04.525Z,7.85
2023-02-27T20:51:36.690Z,9.10
2023-02-27T20:54:06.538Z,6.57
2023-02-27T20:56:36.518Z,8.27
2023-02-27T20:59:08.789Z,8.63
2023-02-27T21:01:38.531Z,8.52
2023-02-27T21:04:05.585Z,7.57
2023-02-27T21:06:32.710Z,8.00
2023-02-27T21:09:03.703Z,6.35
2023-02-27T21:11:32.324Z,6.53
2023-02-27T21:14:06.444Z,7.40
2023-02-27T21:16:39.874Z,5.93
2023-02-27T21:19:07.457Z,7.28
2023-02-27T21:25:15.140Z,7.32
2023-02-27T21:27:46.210Z,7.25
2023-02-27T21:30:13.370Z,6.93
2023-02-27T21:32:40.380Z,7.40
2023-02-27T21:35:07.371Z,6.32
2023-02-27T21:37:36.280Z,5.90
2023-02-27T21:40:11.327Z,10.60
2023-02-27T21:42:40.173Z,7.53
2023-02-27T21:45:07.605Z,5.93
2023-02-27T21:50:15.011Z,7.53
2023-02-27T21:52:45.377Z,9.68
2023-02-27T21:55:14.376Z,8.30
2023-02-27T21:57:44.158Z,7.38
2023-02-27T22:00:12.785Z,9.30
2023-02-27T22:02:40.206Z,8.52
2023-02-27T22:05:07.591Z,12.02
2023-02-27T22:07:37.743Z,10.30
2023-02-27T22:10:07.180Z,10.13
2023-02-27T22:15:00.478Z,7.88
2023-02-27T22:17:27.443Z,7.13
2023-02-27T22:19:56.595Z,9.93
2023-02-27T22:22:25.654Z,9.50
2023-02-27T22:24:52.416Z,8.23
2023-02-27T22:27:21.128Z,8.38
2023-02-27T22:29:53.280Z,9.55
2023-02-27T22:32:24.839Z,9.50
2023-02-27T22:34:51.854Z,9.20
2023-02-27T22:37:21.221Z,8.70
2023-02-27T22:42:19.433Z,9.48
2023-02-27T22:44:46.171Z,10.13
2023-02-27T22:47:12.748Z,6.78
2023-02-27T22:49:44.255Z,8.68
2023-02-27T22:52:13.646Z,9.52
2023-02-27T22:57:12.247Z,6.97
2023-02-27T22:59:39.287Z,7.28
2023-02-27T23:02:08.732Z,11.13
2023-02-27T23:04:35.383Z,8.57
2023-02-27T23:07:02.209Z,7.18
2023-02-27T23:09:31.967Z,9.00
2023-02-27T23:12:03.770Z,9.45
2023-02-27T23:14:33.777Z,11.88
2023-02-27T23:17:05.798Z,10.82
2023-02-27T23:19:33.192Z,8.02
2023-02-27T23:22:02.178Z,8.70
2023-02-27T23:24:28.910Z,10.93
2023-02-27T23:26:58.025Z,9.20
2023-02-27T23:29:27.255Z,10.57
2023-02-27T23:31:54.084Z,9.82
2023-02-27T23:34:25.368Z,9.77
2023-02-27T23:36:52.409Z,10.00
2023-02-27T23:39:21.118Z,9.00
2023-02-27T23:41:47.840Z,10.15
2023-02-27T23:44:35.622Z,11.55
2023-02-27T23:47:04.548Z,9.93
2023-02-27T23:49:31.167Z,8.80
2023-02-27T23:51:58.190Z,10.27
2023-02-27T23:54:24.803Z,8.88
2023-02-27T23:56:51.913Z,9.57
2023-02-27T23:59:18.567Z,11.40
